Time;durP1;ratioP1;P1;durP2;ratioP2;P2;SDS_P1;SDS_P2;PMS_P1;PMS_P2;Temp;Humidity;BMP_temperature;BMP_pressure;BME280_temperature;BME280_humidity;BME280_pressure;Samples;Min_cycle;Max_cycle;Signal;HPM_P1;HPM_P2
2021/03/18 00:00:54;;;;;;;24.20;22.80;;;2.60;99.90;;;;;;5091006;28;20452;-74
2021/03/18 00:03:25;;;;;;;21.77;20.13;;;2.60;99.90;;;;;;5091167;28;20451;-73
2021/03/18 00:05:52;;;;;;;22.30;20.83;;;2.70;99.90;;;;;;5091129;28;20497;-73
2021/03/18 00:08:18;;;;;;;21.70;20.40;;;2.70;99.90;;;;;;5091088;28;20480;-74
2021/03/18 00:10:45;;;;;;;22.77;21.30;;;2.70;99.90;;;;;;5091081;28;20453;-73
2021/03/18 00:13:13;;;;;;;23.07;21.57;;;2.70;99.90;;;;;;5090793;28;20982;-73
2021/03/18 00:15:40;;;;;;;22.83;21.43;;;2.80;99.90;;;;;;5091076;28;20457;-73
2021/03/18 00:18:07;;;;;;;23.30;21.60;;;2.70;99.90;;;;;;5090807;28;20485;-72
2021/03/18 00:20:34;;;;;;;22.17;20.87;;;2.70;99.90;;;;;;5090875;28;20446;-72
2021/03/18 00:23:00;;;;;;;23.03;21.57;;;2.70;99.90;;;;;;5091051;28;20454;-73
2021/03/18 00:25:27;;;;;;;24.33;22.60;;;2.60;99.90;;;;;;5091042;28;20492;-73
2021/03/18 00:27:54;;;;;;;25.13;23.23;;;2.70;99.90;;;;;;5090952;28;20461;-73
2021/03/18 00:30:22;;;;;;;22.77;21.40;;;2.70;99.90;;;;;;5090752;28;20817;-73
2021/03/18 00:32:50;;;;;;;22.73;21.30;;;2.70;99.90;;;;;;5091001;28;20453;-74
2021/03/18 00:35:17;;;;;;;23.20;21.03;;;2.70;99.90;;;;;;5090970;28;20451;-73
2021/03/18 00:37:44;;;;;;;22.27;20.87;;;2.70;99.90;;;;;;5091073;28;20527;-73
2021/03/18 00:40:16;;;;;;;23.40;21.80;;;2.70;99.90;;;;;;5090894;28;20498;-73
2021/03/18 00:42:55;;;;;;;22.77;21.37;;;2.70;99.90;;;;;;5090766;28;20450;-73
2021/03/18 00:45:23;;;;;;;21.53;20.30;;;2.70;99.90;;;;;;5090599;28;20518;-72
2021/03/18 00:47:50;;;;;;;21.90;20.60;;;2.80;99.90;;;;;;5090714;28;20460;-72
2021/03/18 00:50:23;;;;;;;21.00;19.60;;;2.80;99.90;;;;;;5091963;28;20443;-72
2021/03/18 00:52:49;;;;;;;21.57;20.20;;;2.80;99.90;;;;;;5094339;28;20446;-72
2021/03/18 00:55:16;;;;;;;20.77;19.27;;;2.80;99.90;;;;;;5094021;28;20442;-73
2021/03/18 00:57:43;;;;;;;20.27;18.87;;;2.90;99.90;;;;;;5094552;28;20456;-73
2021/03/18 01:00:16;;;;;;;20.80;19.40;;;2.90;99.90;;;;;;5094219;28;20944;-72
2021/03/18 01:02:43;;;;;;;21.27;19.67;;;2.90;99.90;;;;;;5094454;28;20446;-72
2021/03/18 01:05:12;;;;;;;21.30;20.00;;;2.90;99.90;;;;;;5094205;28;20545;-72
2021/03/18 01:07:39;;;;;;;20.97;19.57;;;2.90;99.90;;;;;;5094065;28;20444;-76
2021/03/18 01:10:08;;;;;;;20.07;18.87;;;2.90;99.90;;;;;;5094162;28;20459;-72
2021/03/18 01:12:35;;;;;;;19.33;18.13;;;3.00;99.90;;;;;;5094285;28;20453;-73
2021/03/18 01:15:02;;;;;;;18.57;17.57;;;3.00;99.90;;;;;;5093964;28;20456;-73
2021/03/18 01:17:29;;;;;;;19.53;18.03;;;3.00;99.90;;;;;;5093817;28;20481;-73
2021/03/18 01:19:55;;;;;;;18.80;17.60;;;3.00;99.90;;;;;;5094069;28;20452;-72
2021/03/18 01:22:22;;;;;;;18.70;17.60;;;3.00;99.90;;;;;;5093696;28;20460;-73
2021/03/18 01:24:48;;;;;;;18.47;17.07;;;2.90;99.90;;;;;;5093877;28;20536;-72
2021/03/18 01:27:14;;;;;;;17.50;16.30;;;2.90;99.90;;;;;;5093743;28;20451;-73
2021/03/18 01:29:41;;;;;;;16.87;15.77;;;2.90;99.90;;;;;;5093845;28;20814;-72
2021/03/18 01:32:07;;;;;;;17.50;16.30;;;2.90;99.90;;;;;;5093631;28;20458;-72
2021/03/18 01:34:34;;;;;;;16.83;15.80;;;2.80;99.90;;;;;;5093475;28;20463;-72
2021/03/18 01:37:00;;;;;;;16.40;15.30;;;2.80;99.90;;;;;;5093500;28;21007;-73
2021/03/18 01:39:26;;;;;;;17.50;15.70;;;2.90;99.90;;;;;;5093687;28;20452;-72
2021/03/18 01:41:53;;;;;;;17.20;16.17;;;2.80;99.90;;;;;;5093311;28;20452;-73
2021/03/18 01:44:19;;;;;;;18.13;16.83;;;2.80;99.90;;;;;;5093537;28;20457;-72
2021/03/18 01:46:45;;;;;;;17.90;16.60;;;2.80;99.90;;;;;;5093089;28;20493;-72
2021/03/18 01:49:11;;;;;;;18.93;17.37;;;2.80;99.90;;;;;;5093331;28;20953;-73
2021/03/18 01:51:38;;;;;;;18.00;16.80;;;2.80;99.90;;;;;;5093256;28;20501;-72
2021/03/18 01:54:05;;;;;;;17.60;16.53;;;2.80;99.90;;;;;;5093219;28;20450;-72
2021/03/18 01:56:31;;;;;;;18.50;17.07;;;2.80;99.90;;;;;;5093312;28;20434;-71
2021/03/18 01:58:57;;;;;;;18.40;17.10;;;2.90;99.90;;;;;;5093083;28;20799;-72
2021/03/18 02:01:23;;;;;;;17.87;16.70;;;2.90;99.90;;;;;;5092578;28;20469;-71
2021/03/18 02:03:50;;;;;;;18.27;16.70;;;2.90;99.90;;;;;;5092769;28;21013;-71
2021/03/18 02:06:16;;;;;;;16.70;15.53;;;3.00;99.90;;;;;;5093238;28;20482;-71
2021/03/18 02:08:43;;;;;;;16.17;15.17;;;3.10;99.90;;;;;;5093003;28;20449;-70
2021/03/18 02:11:09;;;;;;;16.70;15.50;;;3.00;99.90;;;;;;5092885;28;20461;-72
2021/03/18 02:13:36;;;;;;;18.43;17.13;;;3.10;99.90;;;;;;5092727;28;20446;-71
2021/03/18 02:16:05;;;;;;;17.23;16.00;;;3.00;99.90;;;;;;5092972;28;20845;-71
2021/03/18 02:18:43;;;;;;;17.90;16.60;;;3.00;99.90;;;;;;5092521;28;20485;-71
2021/03/18 02:21:41;;;;;;;17.63;16.40;;;3.00;99.90;;;;;;5092723;28;20467;-71
2021/03/18 02:24:40;;;;;;;16.87;15.73;;;2.80;99.90;;;;;;5092758;28;20441;-71
2021/03/18 02:27:29;;;;;;;17.27;16.20;;;2.90;99.90;;;;;;5092639;28;20485;-71
2021/03/18 02:30:21;;;;;;;18.57;17.17;;;2.80;99.90;;;;;;5092683;28;20438;-72
2021/03/18 02:33:07;;;;;;;19.67;18.40;;;2.80;99.90;;;;;;5092699;28;20517;-72
2021/03/18 02:35:36;;;;;;;20.07;18.33;;;2.80;99.90;;;;;;5092357;28;20439;-71
2021/03/18 02:38:07;;;;;;;18.63;17.27;;;2.80;99.90;;;;;;5092039;28;20450;-72
2021/03/18 02:40:37;;;;;;;17.70;16.70;;;2.90;99.90;;;;;;5092524;28;20441;-72
2021/03/18 02:43:07;;;;;;;18.57;16.97;;;2.90;99.90;;;;;;5092294;28;20548;-73
2021/03/18 02:45:37;;;;;;;17.43;16.33;;;2.80;99.90;;;;;;5092297;28;20477;-72
2021/03/18 02:48:06;;;;;;;18.00;16.80;;;2.80;99.90;;;;;;5092186;28;20456;-73
2021/03/18 02:50:36;;;;;;;16.57;15.40;;;2.80;99.90;;;;;;5091994;28;20955;-73
2021/03/18 02:53:04;;;;;;;17.70;16.33;;;2.80;99.90;;;;;;5091811;28;20448;-73
2021/03/18 02:55:32;;;;;;;17.57;16.47;;;2.80;99.90;;;;;;5092039;28;20484;-73
2021/03/18 02:58:00;;;;;;;16.87;15.77;;;2.80;99.90;;;;;;5092157;28;20511;-72
2021/03/18 03:00:27;;;;;;;16.57;15.67;;;2.90;99.90;;;;;;5092255;28;20787;-74
2021/03/18 03:02:54;;;;;;;19.50;18.30;;;2.90;99.90;;;;;;5092101;28;20452;-73
2021/03/18 03:05:22;;;;;;;17.90;16.40;;;3.00;99.90;;;;;;5091527;28;20478;-73
2021/03/18 03:07:51;;;;;;;15.33;14.43;;;3.00;99.90;;;;;;5092119;28;20454;-73
2021/03/18 03:10:19;;;;;;;15.97;14.77;;;3.00;99.90;;;;;;5091746;28;20939;-73
2021/03/18 03:12:47;;;;;;;17.00;15.27;;;3.00;99.90;;;;;;5091748;28;20466;-73
2021/03/18 03:15:14;;;;;;;15.17;14.27;;;3.10;99.90;;;;;;5090831;28;20449;-72
2021/03/18 03:17:42;;;;;;;16.20;14.80;;;3.00;99.90;;;;;;5091342;28;20493;-72
2021/03/18 03:20:10;;;;;;;15.60;14.50;;;3.00;99.90;;;;;;5091782;28;20454;-72
2021/03/18 03:22:37;;;;;;;16.80;15.60;;;3.10;99.90;;;;;;5091709;28;20449;-72
2021/03/18 03:25:06;;;;;;;16.23;15.03;;;3.20;99.90;;;;;;5091432;28;20449;-71
2021/03/18 03:27:33;;;;;;;15.43;14.53;;;3.20;99.90;;;;;;5091233;28;20445;-73
2021/03/18 03:30:00;;;;;;;16.70;15.40;;;3.30;99.90;;;;;;5091441;28;20466;-73
2021/03/18 03:32:26;;;;;;;15.80;14.43;;;3.20;99.90;;;;;;5091563;28;20458;-73
2021/03/18 03:34:53;;;;;;;16.83;15.73;;;3.20;99.90;;;;;;5091449;28;20449;-72
2021/03/18 03:37:19;;;;;;;15.67;14.43;;;3.20;99.90;;;;;;5091409;28;20520;-73
2021/03/18 03:39:48;;;;;;;16.17;14.90;;;3.20;99.90;;;;;;5091311;28;20447;-72
2021/03/18 03:42:15;;;;;;;15.60;14.40;;;3.30;99.90;;;;;;5091453;28;20503;-74
2021/03/18 03:44:41;;;;;;;16.83;15.40;;;3.20;99.90;;;;;;5091838;28;20442;-73
2021/03/18 03:47:08;;;;;;;16.40;15.20;;;3.10;99.90;;;;;;5091212;28;20485;-73
2021/03/18 03:49:36;;;;;;;15.57;14.73;;;3.20;99.90;;;;;;5091272;28;20465;-73
2021/03/18 03:52:12;;;;;;;15.47;14.47;;;3.10;99.90;;;;;;5090895;28;20438;-73
2021/03/18 03:54:43;;;;;;;13.80;12.90;;;3.10;99.90;;;;;;5091374;28;20445;-73
2021/03/18 03:57:14;;;;;;;13.73;12.93;;;3.10;99.90;;;;;;5091495;28;20430;-72
2021/03/18 03:59:45;;;;;;;15.83;14.70;;;3.20;99.90;;;;;;5091394;28;20449;-72
2021/03/18 04:02:12;;;;;;;13.93;12.80;;;3.00;99.90;;;;;;5091695;28;20437;-72
2021/03/18 04:04:42;;;;;;;12.73;12.03;;;3.00;99.90;;;;;;5090988;28;20796;-73
2021/03/18 04:07:13;;;;;;;14.70;13.80;;;3.00;99.90;;;;;;5090987;28;20505;-72
2021/03/18 04:09:42;;;;;;;15.17;14.20;;;3.10;99.90;;;;;;5091194;28;20452;-73
2021/03/18 04:12:10;;;;;;;15.20;14.13;;;3.10;99.90;;;;;;5091063;28;20445;-73
2021/03/18 04:14:40;;;;;;;14.40;13.57;;;3.10;99.90;;;;;;5091024;28;20531;-73
2021/03/18 04:17:10;;;;;;;14.00;13.30;;;3.10;99.90;;;;;;5090649;28;20503;-73
2021/03/18 04:19:37;;;;;;;14.37;13.47;;;3.10;99.90;;;;;;5090856;28;20458;-73
2021/03/18 04:22:05;;;;;;;13.83;13.10;;;3.10;99.90;;;;;;5091027;28;21147;-73
2021/03/18 04:24:32;;;;;;;14.60;13.67;;;3.00;99.90;;;;;;5090846;28;20462;-73
2021/03/18 04:26:59;;;;;;;14.67;13.77;;;3.00;99.90;;;;;;5094814;28;20972;-72
2021/03/18 04:29:26;;;;;;;16.87;15.77;;;3.00;99.90;;;;;;5094870;28;20453;-74
2021/03/18 04:31:54;;;;;;;13.80;13.10;;;3.00;99.90;;;;;;5094727;28;20472;-73
2021/03/18 04:34:22;;;;;;;15.23;14.37;;;3.10;99.90;;;;;;5094903;28;20456;-73
2021/03/18 04:36:49;;;;;;;14.13;13.10;;;3.10;99.90;;;;;;5094569;28;20827;-73
2021/03/18 04:39:16;;;;;;;15.30;13.73;;;3.10;99.90;;;;;;5094862;28;20450;-73
2021/03/18 04:41:43;;;;;;;16.10;14.97;;;3.10;99.90;;;;;;5094587;28;20823;-73
2021/03/18 04:44:13;;;;;;;15.63;14.63;;;3.20;99.90;;;;;;5094429;28;20450;-73
2021/03/18 04:46:43;;;;;;;15.17;14.00;;;3.10;99.90;;;;;;5094486;28;20523;-74
2021/03/18 04:49:10;;;;;;;14.70;13.23;;;3.20;99.90;;;;;;5094500;28;20815;-73
2021/03/18 04:51:37;;;;;;;14.10;13.30;;;3.10;99.90;;;;;;5094249;28;20934;-74
2021/03/18 04:54:04;;;;;;;15.67;14.57;;;3.10;99.90;;;;;;5094337;28;20449;-73
2021/03/18 04:56:32;;;;;;;15.67;14.57;;;3.10;99.90;;;;;;5094470;28;20469;-73
2021/03/18 04:59:01;;;;;;;13.83;13.13;;;3.20;99.90;;;;;;5094111;28;20446;-74
2021/03/18 05:01:28;;;;;;;13.60;12.80;;;3.20;99.90;;;;;;5094211;28;20444;-74
2021/03/18 05:03:54;;;;;;;14.47;13.37;;;3.20;99.90;;;;;;5094203;28;20819;-74
2021/03/18 05:06:21;;;;;;;15.57;14.40;;;3.20;99.90;;;;;;5094296;28;20478;-73
2021/03/18 05:08:48;;;;;;;14.40;13.53;;;3.10;99.90;;;;;;5093993;28;20476;-74
2021/03/18 05:11:14;;;;;;;13.63;12.73;;;3.20;99.90;;;;;;5094152;28;20446;-73
2021/03/18 05:13:41;;;;;;;14.13;13.07;;;3.20;99.90;;;;;;5093960;28;20453;-73
2021/03/18 05:16:09;;;;;;;13.93;12.87;;;3.20;99.90;;;;;;5094003;28;20948;-71
2021/03/18 05:18:36;;;;;;;14.10;13.30;;;3.10;99.90;;;;;;5093629;28;20474;-73
2021/03/18 05:21:04;;;;;;;13.73;12.63;;;3.10;99.90;;;;;;5093776;28;20477;-72
2021/03/18 05:23:32;;;;;;;14.27;13.03;;;3.10;99.90;;;;;;5093873;28;20441;-72
2021/03/18 05:26:00;;;;;;;14.57;13.57;;;3.00;99.90;;;;;;5093606;28;20495;-72
2021/03/18 05:28:27;;;;;;;14.37;13.27;;;3.00;99.90;;;;;;5093769;28;20449;-73
2021/03/18 05:30:53;;;;;;;14.33;13.53;;;3.00;99.90;;;;;;5093730;28;20536;-73
2021/03/18 05:33:19;;;;;;;13.23;12.50;;;3.00;99.90;;;;;;5093808;28;20452;-72
2021/03/18 05:35:46;;;;;;;14.03;13.00;;;2.90;99.90;;;;;;5093467;28;20446;-73
2021/03/18 05:38:14;;;;;;;13.03;12.23;;;2.90;99.90;;;;;;5092615;28;20455;-73
2021/03/18 05:40:42;;;;;;;14.30;13.50;;;3.00;99.90;;;;;;5093639;28;20516;-73
2021/03/18 05:43:09;;;;;;;14.20;13.40;;;3.00;99.90;;;;;;5093562;28;20450;-73
2021/03/18 05:45:36;;;;;;;15.17;13.97;;;3.00;99.90;;;;;;5093245;28;20491;-73
2021/03/18 05:48:03;;;;;;;14.37;13.47;;;3.10;99.90;;;;;;5093511;28;20454;-73
2021/03/18 05:50:31;;;;;;;13.20;12.40;;;3.00;99.90;;;;;;5093567;28;20449;-72
2021/03/18 05:52:59;;;;;;;13.67;12.77;;;3.10;99.90;;;;;;5093565;28;20508;-72
2021/03/18 05:55:26;;;;;;;14.40;13.60;;;3.20;99.90;;;;;;5093483;28;20983;-72
2021/03/18 05:57:52;;;;;;;14.63;13.63;;;3.20;99.90;;;;;;5093421;28;20450;-71
2021/03/18 06:00:20;;;;;;;13.43;12.50;;;3.30;99.90;;;;;;5093358;28;20454;-72
2021/03/18 06:02:47;;;;;;;13.70;12.87;;;3.30;99.90;;;;;;5093001;28;20442;-73
2021/03/18 06:05:15;;;;;;;13.60;12.50;;;3.40;99.90;;;;;;5093291;28;20471;-72
2021/03/18 06:07:43;;;;;;;13.43;12.50;;;3.50;99.90;;;;;;5093294;28;20473;-72
2021/03/18 06:10:12;;;;;;;15.20;14.20;;;3.60;99.90;;;;;;5093162;28;20461;-72
2021/03/18 06:12:39;;;;;;;13.70;12.80;;;3.60;99.90;;;;;;5093120;28;20821;-73
2021/03/18 06:15:07;;;;;;;13.90;12.87;;;3.70;99.90;;;;;;5092906;28;20458;-73
2021/03/18 06:17:34;;;;;;;14.33;13.13;;;3.70;99.90;;;;;;5092612;28;20535;-73
2021/03/18 06:20:01;;;;;;;14.70;13.80;;;3.80;99.90;;;;;;5092965;28;20497;-72
2021/03/18 06:22:35;;;;;;;14.17;13.37;;;3.80;99.90;;;;;;5093084;28;20488;-73
2021/03/18 06:25:03;;;;;;;14.93;13.80;;;4.00;99.90;;;;;;5092690;28;20454;-74
2021/03/18 06:27:29;;;;;;;14.20;13.23;;;4.30;99.90;;;;;;5092629;28;20939;-78
2021/03/18 06:29:56;;;;;;;13.87;12.57;;;4.70;99.90;;;;;;5092827;28;20952;-73
2021/03/18 06:32:24;;;;;;;13.73;12.93;;;5.10;99.90;;;;;;5092455;28;20453;-71
2021/03/18 06:34:54;;;;;;;14.23;13.20;;;5.60;99.90;;;;;;5092312;28;20451;-72
2021/03/18 06:37:35;;;;;;;13.50;12.60;;;6.10;99.90;;;;;;5092389;28;21052;-72
2021/03/18 06:40:09;;;;;;;13.63;12.73;;;6.60;99.90;;;;;;5092348;28;20952;-71
2021/03/18 06:42:36;;;;;;;13.60;12.63;;;7.10;99.90;;;;;;5092475;28;20446;-74
2021/03/18 06:45:05;;;;;;;13.70;12.90;;;7.20;99.90;;;;;;5092433;28;20457;-73
2021/03/18 06:47:43;;;;;;;13.80;13.10;;;6.90;99.90;;;;;;5091789;28;20498;-73
2021/03/18 06:50:12;;;;;;;13.13;12.43;;;7.00;99.90;;;;;;5089585;28;20450;-73
2021/03/18 06:52:40;;;;;;;13.33;12.53;;;7.20;99.90;;;;;;5092017;28;20969;-73
2021/03/18 06:55:09;;;;;;;14.10;13.10;;;7.50;99.90;;;;;;5092315;28;20945;-73
2021/03/18 06:57:36;;;;;;;13.70;12.77;;;7.50;99.90;;;;;;5092117;28;20446;-72
2021/03/18 07:00:04;;;;;;;14.07;13.37;;;7.70;99.90;;;;;;5091603;28;20454;-73
2021/03/18 07:02:30;;;;;;;15.07;14.10;;;7.60;99.90;;;;;;5092046;28;20792;-72
2021/03/18 07:04:57;;;;;;;14.57;13.67;;;7.50;99.90;;;;;;5092000;28;20458;-72
2021/03/18 07:07:25;;;;;;;13.37;12.53;;;7.70;99.90;;;;;;5091740;28;20493;-72
2021/03/18 07:09:54;;;;;;;14.13;13.20;;;7.50;99.90;;;;;;5091816;28;20817;-72
2021/03/18 07:12:27;;;;;;;14.37;13.57;;;7.20;99.90;;;;;;5091447;28;20450;-72
2021/03/18 07:14:54;;;;;;;15.10;13.60;;;7.40;99.90;;;;;;5092015;28;20434;-72
2021/03/18 07:17:28;;;;;;;14.57;13.27;;;7.30;99.90;;;;;;5091510;28;20861;-72
2021/03/18 07:20:09;;;;;;;13.80;13.00;;;7.30;99.90;;;;;;5091791;28;20453;-72
2021/03/18 07:22:42;;;;;;;14.57;13.70;;;7.30;99.90;;;;;;5091694;28;20817;-73
2021/03/18 07:25:10;;;;;;;14.93;13.70;;;6.80;99.90;;;;;;5091576;28;20477;-73
2021/03/18 07:27:40;;;;;;;14.93;13.80;;;6.60;99.90;;;;;;5091784;28;20447;-73
2021/03/18 07:30:08;;;;;;;14.47;13.40;;;6.70;99.90;;;;;;5091603;28;20449;-71
2021/03/18 07:32:35;;;;;;;13.90;13.00;;;6.80;99.90;;;;;;5091726;28;20450;-71
2021/03/18 07:35:01;;;;;;;14.00;12.90;;;7.00;99.90;;;;;;5091667;28;20858;-71
2021/03/18 07:37:28;;;;;;;15.23;14.10;;;7.50;99.90;;;;;;5091258;28;20511;-71
2021/03/18 07:39:55;;;;;;;16.70;15.10;;;8.10;99.90;;;;;;5091225;28;20446;-71
2021/03/18 07:42:22;;;;;;;14.03;12.87;;;8.70;99.90;;;;;;5091260;28;20450;-71
2021/03/18 07:44:50;;;;;;;14.90;13.30;;;9.30;99.90;;;;;;5091099;28;20442;-72
2021/03/18 07:47:17;;;;;;;14.70;13.60;;;9.60;99.90;;;;;;5090924;28;20483;-72
2021/03/18 07:49:46;;;;;;;13.63;12.87;;;9.70;97.60;;;;;;5091263;28;20456;-72
2021/03/18 07:52:16;;;;;;;14.33;13.40;;;9.60;97.70;;;;;;5091233;28;20450;-72
2021/03/18 07:54:45;;;;;;;14.93;14.00;;;10.10;99.40;;;;;;5091439;28;20457;-72
2021/03/18 07:57:15;;;;;;;14.20;13.30;;;11.00;96.00;;;;;;5091076;28;20446;-71
2021/03/18 07:59:42;;;;;;;14.83;14.03;;;10.80;95.40;;;;;;5091193;28;20446;-72
2021/03/18 08:02:14;;;;;;;15.40;14.40;;;11.60;95.10;;;;;;5095099;28;20457;-70
2021/03/18 08:04:42;;;;;;;18.50;17.30;;;11.90;94.10;;;;;;5095054;28;20458;-72
2021/03/18 08:07:09;;;;;;;16.10;15.00;;;11.80;92.40;;;;;;5094875;28;20583;-73
2021/03/18 08:09:50;;;;;;;15.70;14.70;;;11.30;92.80;;;;;;5095044;28;20450;-71
2021/03/18 08:12:36;;;;;;;16.10;14.53;;;12.10;93.40;;;;;;5094921;28;20450;-71
2021/03/18 08:15:23;;;;;;;15.10;13.97;;;12.90;92.50;;;;;;5095023;28;20790;-71
2021/03/18 08:17:50;;;;;;;16.90;15.70;;;13.10;91.10;;;;;;5094865;28;20478;-72
2021/03/18 08:20:49;;;;;;;17.50;16.20;;;13.10;90.40;;;;;;5095010;28;20438;-73
2021/03/18 08:23:51;;;;;;;14.93;14.10;;;13.50;90.30;;;;;;5094938;28;20450;-72
2021/03/18 08:26:47;;;;;;;17.23;15.57;;;14.00;90.90;;;;;;5094652;28;20537;-72
2021/03/18 08:29:23;;;;;;;15.50;14.50;;;14.70;83.20;;;;;;5094807;28;20460;-72
2021/03/18 08:31:55;;;;;;;16.23;14.80;;;15.10;80.20;;;;;;5094782;28;20510;-73
2021/03/18 08:34:45;;;;;;;16.47;15.40;;;14.70;81.20;;;;;;5094646;28;20450;-73
2021/03/18 08:37:12;;;;;;;16.07;15.27;;;14.70;80.20;;;;;;5094553;28;21006;-74
2021/03/18 08:39:42;;;;;;;16.40;15.40;;;14.20;81.40;;;;;;5094564;28;20450;-75
2021/03/18 08:42:45;;;;;;;15.63;14.80;;;15.10;79.70;;;;;;5094326;28;20536;-73
2021/03/18 08:45:38;;;;;;;15.53;14.60;;;14.50;78.40;;;;;;5094545;28;20446;-73
2021/03/18 08:48:13;;;;;;;16.60;15.57;;;15.80;75.10;;;;;;5094372;28;20443;-73
2021/03/18 08:51:00;;;;;;;16.10;15.07;;;16.00;73.40;;;;;;5094213;28;20457;-74
2021/03/18 08:53:32;;;;;;;16.03;14.97;;;16.40;75.80;;;;;;5094439;28;20460;-73
2021/03/18 08:55:58;;;;;;;16.23;15.33;;;16.80;68.80;;;;;;5094040;28;20469;-72
2021/03/18 08:58:24;;;;;;;16.17;15.03;;;16.90;67.60;;;;;;5093767;28;20480;-73
2021/03/18 09:00:51;;;;;;;17.20;15.90;;;16.30;67.10;;;;;;5093498;28;20468;-73
2021/03/18 09:03:19;;;;;;;16.27;15.30;;;15.10;69.40;;;;;;5094186;28;20438;-74
2021/03/18 09:05:53;;;;;;;16.30;15.20;;;14.60;69.70;;;;;;5094127;28;20482;-73
2021/03/18 09:08:24;;;;;;;15.67;14.57;;;14.20;72.70;;;;;;5094090;28;21164;-74
2021/03/18 09:10:51;;;;;;;17.17;15.87;;;13.50;75.70;;;;;;5094057;28;20481;-74
2021/03/18 09:13:20;;;;;;;16.53;15.43;;;13.90;77.10;;;;;;5093985;28;20446;-74
2021/03/18 09:15:48;;;;;;;18.00;16.47;;;12.90;78.90;;;;;;5093941;28;20472;-73
2021/03/18 09:18:17;;;;;;;18.67;17.20;;;12.30;79.00;;;;;;5093591;28;20486;-73
2021/03/18 09:20:46;;;;;;;15.37;14.27;;;11.50;83.70;;;;;;5093955;28;20491;-73
2021/03/18 09:23:14;;;;;;;15.67;14.60;;;11.30;84.20;;;;;;5094061;28;20455;-73
2021/03/18 09:25:41;;;;;;;15.20;14.27;;;10.40;83.00;;;;;;5093577;28;20489;-73
2021/03/18 09:28:09;;;;;;;13.10;12.23;;;10.40;84.20;;;;;;5093767;28;20507;-73
2021/03/18 09:30:37;;;;;;;14.60;13.40;;;10.70;83.60;;;;;;5093596;28;20473;-73
2021/03/18 09:33:17;;;;;;;14.97;13.60;;;11.00;83.90;;;;;;5093596;28;20822;-73
2021/03/18 09:35:44;;;;;;;14.73;13.77;;;11.30;84.30;;;;;;5093487;28;20449;-73
2021/03/18 09:38:16;;;;;;;15.37;14.23;;;10.10;85.00;;;;;;5093688;28;20462;-73
2021/03/18 09:40:43;;;;;;;14.80;13.63;;;9.90;88.70;;;;;;5093579;28;20776;-73
2021/03/18 09:43:09;;;;;;;14.97;14.00;;;9.50;90.30;;;;;;5093484;28;20450;-73
2021/03/18 09:45:36;;;;;;;14.53;13.67;;;9.10;90.60;;;;;;5093326;28;20454;-72
2021/03/18 09:48:02;;;;;;;16.03;14.93;;;8.80;91.40;;;;;;5093205;28;20450;-73
2021/03/18 09:50:32;;;;;;;15.67;14.47;;;8.70;91.50;;;;;;5093308;28;20512;-74
2021/03/18 09:53:10;;;;;;;13.70;12.67;;;8.80;91.80;;;;;;5093489;28;20458;-72
2021/03/18 09:55:37;;;;;;;14.40;13.53;;;8.90;92.00;;;;;;5093167;28;20442;-73
2021/03/18 09:58:09;;;;;;;13.37;12.60;;;8.70;91.90;;;;;;5092970;28;20932;-73
2021/03/18 10:00:36;;;;;;;13.17;12.37;;;8.90;90.60;;;;;;5093120;28;20451;-73
2021/03/18 10:03:03;;;;;;;13.57;12.77;;;9.10;90.10;;;;;;5093105;28;20457;-72
2021/03/18 10:05:30;;;;;;;12.53;11.73;;;8.80;90.10;;;;;;5092987;28;20461;-73
2021/03/18 10:07:57;;;;;;;13.07;12.17;;;9.10;90.00;;;;;;5093131;28;20450;-73
2021/03/18 10:10:24;;;;;;;12.53;11.83;;;8.70;87.60;;;;;;5092859;28;20448;-73
2021/03/18 10:12:51;;;;;;;12.47;11.43;;;9.30;87.70;;;;;;5093001;28;20852;-73
2021/03/18 10:15:19;;;;;;;14.67;13.73;;;9.50;86.80;;;;;;5092661;28;20462;-73
2021/03/18 10:17:47;;;;;;;15.17;14.07;;;9.80;88.00;;;;;;5092605;28;20506;-73
2021/03/18 10:20:18;;;;;;;14.90;14.00;;;10.40;86.80;;;;;;5092663;28;20453;-73
2021/03/18 10:22:49;;;;;;;13.40;12.50;;;10.80;83.50;;;;;;5092228;28;20937;-73
2021/03/18 10:25:17;;;;;;;14.43;13.57;;;10.30;83.20;;;;;;5092697;28;20465;-72
2021/03/18 10:27:45;;;;;;;13.70;13.00;;;10.20;86.00;;;;;;5092362;28;20478;-73
2021/03/18 10:30:14;;;;;;;13.00;12.20;;;10.10;86.60;;;;;;5092539;28;21187;-71
2021/03/18 10:32:41;;;;;;;13.77;12.93;;;10.00;86.10;;;;;;5092568;28;20462;-72
2021/03/18 10:35:10;;;;;;;16.40;14.87;;;9.10;88.80;;;;;;5092489;28;20603;-71
2021/03/18 10:37:39;;;;;;;14.20;13.20;;;9.20;90.40;;;;;;5092378;28;20523;-70
2021/03/18 10:40:21;;;;;;;14.03;13.13;;;9.50;90.50;;;;;;5092432;28;20452;-70
2021/03/18 10:42:50;;;;;;;13.33;12.53;;;9.30;89.60;;;;;;5092364;28;20458;-69
2021/03/18 10:45:23;;;;;;;14.40;13.40;;;9.30;89.20;;;;;;5092213;28;20462;-70
2021/03/18 10:47:55;;;;;;;14.60;13.40;;;9.40;88.60;;;;;;5092052;28;20497;-72
2021/03/18 10:50:25;;;;;;;15.10;14.00;;;9.50;90.10;;;;;;5091543;28;20477;-72
2021/03/18 10:52:56;;;;;;;14.23;13.53;;;10.00;88.00;;;;;;5091799;28;21173;-72
2021/03/18 10:55:30;;;;;;;14.17;13.20;;;10.30;86.60;;;;;;5091877;28;20473;-72
2021/03/18 10:58:01;;;;;;;13.93;12.83;;;10.80;86.00;;;;;;5092248;28;20450;-72
2021/03/18 11:00:29;;;;;;;14.83;13.93;;;11.30;84.20;;;;;;5092041;28;20450;-74
2021/03/18 11:03:05;;;;;;;13.90;12.97;;;11.30;82.20;;;;;;5092060;28;20458;-74
2021/03/18 11:05:34;;;;;;;15.40;14.60;;;11.90;83.30;;;;;;5091752;28;20441;-73
2021/03/18 11:08:01;;;;;;;14.27;13.03;;;11.90;82.00;;;;;;5091769;28;20446;-73
2021/03/18 11:10:32;;;;;;;14.53;13.43;;;12.50;81.40;;;;;;5091757;28;20449;-73
2021/03/18 11:13:00;;;;;;;14.10;12.90;;;13.40;78.20;;;;;;5091701;28;20454;-74
2021/03/18 11:15:27;;;;;;;13.70;12.93;;;13.90;75.90;;;;;;5089066;28;20447;-73
2021/03/18 11:18:05;;;;;;;14.03;13.33;;;13.90;73.10;;;;;;5090881;28;20474;-73
2021/03/18 11:20:34;;;;;;;16.53;15.30;;;13.40;71.30;;;;;;5090944;28;20446;-73
2021/03/18 11:23:02;;;;;;;13.97;13.13;;;13.30;74.30;;;;;;5091824;28;20468;-73
2021/03/18 11:25:28;;;;;;;15.33;14.13;;;13.30;73.10;;;;;;5091706;28;20536;-73
2021/03/18 11:27:56;;;;;;;14.00;13.30;;;13.00;74.00;;;;;;5091807;28;20482;-73
2021/03/18 11:30:30;;;;;;;13.13;12.40;;;13.00;73.70;;;;;;5091609;28;20450;-73
2021/03/18 11:33:16;;;;;;;14.63;13.70;;;14.00;71.20;;;;;;5091810;28;20460;-73
2021/03/18 11:35:45;;;;;;;14.90;14.00;;;14.90;68.00;;;;;;5091010;28;20457;-74
2021/03/18 11:38:12;;;;;;;15.33;14.27;;;14.60;66.30;;;;;;5091755;28;20450;-73
2021/03/18 11:40:39;;;;;;;14.07;13.00;;;15.60;64.90;;;;;;5091554;28;20670;-73
2021/03/18 11:43:06;;;;;;;14.10;13.20;;;15.40;63.90;;;;;;5091485;28;20446;-74
2021/03/18 11:45:33;;;;;;;13.97;13.17;;;14.90;64.50;;;;;;5091709;28;20449;-73
2021/03/18 11:48:00;;;;;;;13.27;12.50;;;15.00;62.50;;;;;;5091819;28;20453;-73
2021/03/18 11:50:26;;;;;;;13.37;12.73;;;14.70;61.20;;;;;;5091568;28;20511;-72
2021/03/18 11:52:53;;;;;;;15.53;14.60;;;15.40;62.00;;;;;;5071312;28;20447;-72
2021/03/18 11:55:19;;;;;;;15.73;14.83;;;17.10;59.10;;;;;;5071311;28;20714;-71
2021/03/18 11:57:47;;;;;;;16.17;15.37;;;18.50;53.80;;;;;;5071424;28;20450;-71
2021/03/18 12:00:15;;;;;;;14.20;13.37;;;18.60;51.80;;;;;;5071282;28;20455;-72
2021/03/18 12:02:42;;;;;;;14.57;13.63;;;19.30;51.70;;;;;;5071397;28;20450;-71
2021/03/18 12:05:09;;;;;;;14.57;13.90;;;19.10;49.80;;;;;;5071237;28;20785;-71
2021/03/18 12:07:35;;;;;;;14.80;14.00;;;20.00;49.00;;;;;;5071114;28;20519;-71
2021/03/18 12:10:01;;;;;;;14.10;13.50;;;20.50;46.80;;;;;;5071302;28;20479;-72
2021/03/18 12:12:28;;;;;;;13.43;12.43;;;19.00;46.10;;;;;;5071445;28;20455;-73
2021/03/18 12:14:54;;;;;;;15.33;14.33;;;16.50;49.90;;;;;;5071097;28;20454;-72
2021/03/18 12:17:21;;;;;;;15.57;14.67;;;14.20;57.20;;;;;;5070892;28;20443;-72
2021/03/18 12:19:48;;;;;;;13.87;13.17;;;12.80;66.50;;;;;;5070968;28;20481;-74
2021/03/18 12:22:14;;;;;;;16.13;15.13;;;11.30;73.20;;;;;;5071017;28;20512;-73
2021/03/18 12:24:40;;;;;;;16.70;15.30;;;10.30;88.60;;;;;;5070688;28;20459;-72
2021/03/18 12:27:06;;;;;;;16.20;15.10;;;9.30;90.70;;;;;;5071093;28;20629;-70
2021/03/18 12:29:33;;;;;;;17.37;16.37;;;8.70;94.00;;;;;;5071019;28;20455;-71
2021/03/18 12:31:59;;;;;;;18.50;17.20;;;8.20;97.50;;;;;;5071054;28;20826;-70
2021/03/18 12:34:26;;;;;;;17.77;16.77;;;7.60;98.20;;;;;;5070884;28;20503;-71
2021/03/18 12:36:52;;;;;;;19.50;18.23;;;7.00;97.30;;;;;;5070674;28;20478;-71
2021/03/18 12:39:18;;;;;;;20.30;19.20;;;6.50;98.00;;;;;;5071001;28;20890;-72
2021/03/18 12:41:45;;;;;;;20.50;18.90;;;6.60;99.90;;;;;;5070947;28;20455;-71
2021/03/18 12:44:11;;;;;;;20.43;19.33;;;6.80;99.90;;;;;;5071162;28;20454;-71